Time;durP1;ratioP1;P1;durP2;ratioP2;P2;SDS_P1;SDS_P2;PMS_P1;PMS_P2;Temp;Humidity;BMP_temperature;BMP_pressure;BME280_temperature;BME280_humidity;BME280_pressure;Samples;Min_cycle;Max_cycle;Signal;HPM_P1;HPM_P2
2023/04/13 00:00:47;;;;;;;0.22;0.22;;;7.40;99.90;;;;;;5076536;28;20044;-69
2023/04/13 00:03:15;;;;;;;0.40;0.35;;;7.40;99.90;;;;;;5074633;28;20095;-69
2023/04/13 00:05:42;;;;;;;3.92;0.75;;;7.40;99.90;;;;;;5074759;28;20028;-69
2023/04/13 00:08:08;;;;;;;15.52;0.95;;;7.40;99.90;;;;;;5075885;28;20504;-69
2023/04/13 00:10:35;;;;;;;10.63;1.60;;;7.40;99.90;;;;;;5075876;28;20032;-69
2023/04/13 00:13:05;;;;;;;0.57;0.57;;;7.30;99.90;;;;;;5076188;28;20028;-70
2023/04/13 00:15:35;;;;;;;4.45;1.58;;;7.40;99.90;;;;;;5075527;28;20017;-69
2023/04/13 00:18:02;;;;;;;2.22;0.43;;;7.40;99.90;;;;;;5074839;28;20041;-69
2023/04/13 00:20:28;;;;;;;1.98;0.68;;;7.40;99.90;;;;;;5075523;28;20016;-69
2023/04/13 00:22:55;;;;;;;12.95;0.85;;;7.40;99.90;;;;;;5075702;28;20036;-69
2023/04/13 00:25:21;;;;;;;0.80;0.35;;;7.40;99.90;;;;;;5075730;28;20025;-70
2023/04/13 00:27:51;;;;;;;0.20;0.20;;;7.50;99.90;;;;;;5075653;28;20427;-70
2023/04/13 00:30:19;;;;;;;3.78;1.73;;;7.50;99.90;;;;;;5074017;28;20443;-69
2023/04/13 00:32:45;;;;;;;0.40;0.35;;;7.40;99.90;;;;;;5075579;28;20412;-69
2023/04/13 00:35:14;;;;;;;5.35;0.93;;;7.40;99.90;;;;;;5074289;28;20032;-69
2023/04/13 00:37:41;;;;;;;3.28;1.63;;;7.50;99.90;;;;;;5075118;28;20079;-69
2023/04/13 00:40:09;;;;;;;7.65;0.93;;;7.50;99.90;;;;;;5074182;28;20486;-69
2023/04/13 00:42:35;;;;;;;0.65;0.65;;;7.50;99.90;;;;;;5073778;28;20028;-69
2023/04/13 00:45:00;;;;;;;5.00;0.93;;;7.50;99.90;;;;;;5075152;28;20465;-73
2023/04/13 00:47:32;;;;;;;4.28;1.08;;;7.60;99.90;;;;;;5075503;28;20020;-73
2023/04/13 00:50:04;;;;;;;2.13;0.38;;;7.50;99.90;;;;;;5075088;28;20153;-73
2023/04/13 00:52:33;;;;;;;4.05;1.20;;;7.50;99.90;;;;;;5075366;28;20035;-73
2023/04/13 00:55:02;;;;;;;4.78;1.02;;;7.50;99.90;;;;;;5074620;28;20016;-73
2023/04/13 00:57:31;;;;;;;3.17;1.90;;;7.60;99.90;;;;;;5075354;28;20032;-72
2023/04/13 00:59:58;;;;;;;6.55;2.15;;;7.60;99.90;;;;;;5073560;28;20040;-73
2023/04/13 01:02:25;;;;;;;3.63;1.23;;;7.60;99.90;;;;;;5073748;28;20012;-73
2023/04/13 01:04:56;;;;;;;2.28;0.77;;;7.60;99.90;;;;;;5074749;28;20170;-73
2023/04/13 01:07:40;;;;;;;0.53;0.47;;;7.70;99.90;;;;;;5073925;28;20024;-73
2023/04/13 01:10:31;;;;;;;3.13;0.95;;;7.60;99.90;;;;;;5073290;28;20032;-72
2023/04/13 01:13:16;;;;;;;0.60;0.60;;;7.60;99.90;;;;;;5073487;28;20084;-72
2023/04/13 01:16:02;;;;;;;7.97;1.98;;;7.60;99.90;;;;;;5073310;28;20024;-73
2023/04/13 01:18:34;;;;;;;2.85;0.77;;;7.60;99.90;;;;;;5073603;28;20035;-72
2023/04/13 01:21:03;;;;;;;0.20;0.20;;;7.70;99.90;;;;;;5073544;28;20067;-73
2023/04/13 01:23:50;;;;;;;5.43;1.35;;;7.70;99.90;;;;;;5073307;28;20029;-73
2023/04/13 01:26:16;;;;;;;15.18;1.48;;;7.60;99.90;;;;;;5073333;28;20029;-73
2023/04/13 01:28:43;;;;;;;2.55;0.82;;;7.70;99.90;;;;;;5073292;28;20070;-73
2023/04/13 01:31:12;;;;;;;1.30;0.73;;;7.70;99.90;;;;;;5073273;28;20056;-73
2023/04/13 01:33:40;;;;;;;2.55;0.65;;;7.60;99.90;;;;;;5073271;28;20020;-72
2023/04/13 01:36:09;;;;;;;0.82;0.55;;;7.60;99.90;;;;;;5073105;28;20024;-71
2023/04/13 01:38:36;;;;;;;3.13;1.23;;;7.70;99.90;;;;;;5073007;28;20025;-73
2023/04/13 01:41:03;;;;;;;0.10;0.10;;;7.50;99.90;;;;;;5073092;28;20035;-71
2023/04/13 01:43:32;;;;;;;6.80;1.15;;;7.60;99.90;;;;;;5072770;28;20036;-73
2023/04/13 01:46:12;;;;;;;3.70;0.98;;;7.50;99.90;;;;;;5072555;28;20027;-72
2023/04/13 01:49:19;;;;;;;0.70;0.35;;;7.60;99.90;;;;;;5072009;28;20068;-73
2023/04/13 01:52:04;;;;;;;1.83;0.45;;;7.50;99.90;;;;;;5072015;28;20450;-72
2023/04/13 01:54:35;;;;;;;1.45;0.85;;;7.50;99.90;;;;;;5056421;28;20122;-73
2023/04/13 01:57:03;;;;;;;0.82;0.55;;;7.50;99.90;;;;;;5072594;28;20024;-72
2023/04/13 01:59:29;;;;;;;3.53;0.35;;;7.70;99.90;;;;;;5056243;28;20089;-73
2023/04/13 02:01:57;;;;;;;1.60;0.70;;;7.70;99.90;;;;;;5072662;28;20100;-72
2023/04/13 02:04:23;;;;;;;5.60;1.08;;;7.70;99.90;;;;;;5072452;28;20037;-73
2023/04/13 02:06:50;;;;;;;13.98;2.40;;;7.60;99.90;;;;;;5071670;28;20025;-72
2023/04/13 02:09:18;;;;;;;2.47;1.48;;;7.60;99.90;;;;;;5056135;28;20028;-74
2023/04/13 02:11:44;;;;;;;0.60;0.60;;;7.60;99.90;;;;;;5072037;28;20043;-73
2023/04/13 02:14:10;;;;;;;1.60;0.55;;;7.60;99.90;;;;;;5072444;28;20021;-71
2023/04/13 02:16:35;;;;;;;2.95;1.27;;;7.70;99.90;;;;;;5055738;28;20409;-73
2023/04/13 02:19:01;;;;;;;1.17;0.60;;;7.60;99.90;;;;;;5073447;28;20021;-72
2023/04/13 02:21:27;;;;;;;0.47;0.47;;;7.60;99.90;;;;;;5072215;28;20456;-73
2023/04/13 02:23:53;;;;;;;0.30;0.30;;;7.70;99.90;;;;;;5073330;28;20484;-73
2023/04/13 02:26:22;;;;;;;1.25;0.73;;;7.70;99.90;;;;;;5071803;28;20031;-72
2023/04/13 02:28:50;;;;;;;3.28;0.88;;;7.60;99.90;;;;;;5072115;28;20500;-72
2023/04/13 02:31:18;;;;;;;0.15;0.15;;;7.70;99.90;;;;;;5073301;28;20016;-72
2023/04/13 02:33:45;;;;;;;0.82;0.75;;;7.60;99.90;;;;;;5071980;28;20063;-72
2023/04/13 02:36:11;;;;;;;3.50;0.60;;;7.60;99.90;;;;;;5072311;28;20040;-70
2023/04/13 02:38:45;;;;;;;0.73;0.70;;;7.70;99.90;;;;;;5071999;28;20036;-70
2023/04/13 02:41:21;;;;;;;0.10;0.10;;;7.70;99.90;;;;;;5059078;28;20025;-70
2023/04/13 02:43:51;;;;;;;10.38;0.68;;;7.70;99.90;;;;;;5071806;28;20480;-69
2023/04/13 02:46:20;;;;;;;0.77;0.75;;;7.70;99.90;;;;;;5071657;28;20048;-69
2023/04/13 02:48:50;;;;;;;0.70;0.65;;;7.70;99.90;;;;;;5071730;28;20036;-69
2023/04/13 02:51:16;;;;;;;0.10;0.10;;;7.80;99.90;;;;;;5071784;28;20127;-69
2023/04/13 02:53:42;;;;;;;0.43;0.38;;;7.70;99.90;;;;;;5071704;28;20489;-69
2023/04/13 02:56:09;;;;;;;2.15;1.15;;;7.60;99.90;;;;;;5071380;28;20461;-69
2023/04/13 02:58:35;;;;;;;0.95;0.22;;;7.70;99.90;;;;;;5071413;28;20025;-69
2023/04/13 03:01:06;;;;;;;0.70;0.70;;;7.70;99.90;;;;;;5071695;28;20120;-69
2023/04/13 03:03:32;;;;;;;2.58;1.10;;;7.60;99.90;;;;;;5054729;28;20083;-69
2023/04/13 03:06:00;;;;;;;0.57;0.57;;;7.50;99.90;;;;;;5071488;28;20052;-69
2023/04/13 03:08:36;;;;;;;14.00;1.83;;;7.50;99.90;;;;;;5071331;28;20040;-69
2023/04/13 03:11:10;;;;;;;3.10;1.00;;;7.50;99.90;;;;;;5071455;28;20024;-69
2023/04/13 03:13:40;;;;;;;0.20;0.20;;;7.40;99.90;;;;;;5071423;28;20062;-69
2023/04/13 03:16:10;;;;;;;2.30;0.63;;;7.50;99.90;;;;;;5071439;28;20107;-69
2023/04/13 03:18:37;;;;;;;4.68;1.40;;;7.40;99.90;;;;;;5071171;28;20388;-69
2023/04/13 03:21:04;;;;;;;1.08;1.00;;;7.40;99.90;;;;;;5071379;28;20496;-69
2023/04/13 03:23:36;;;;;;;3.45;0.50;;;7.40;99.90;;;;;;5071021;28;20059;-72
2023/04/13 03:26:05;;;;;;;2.17;0.73;;;7.40;99.90;;;;;;5071214;28;20021;-69
2023/04/13 03:28:30;;;;;;;1.65;0.70;;;7.40;99.90;;;;;;5071023;28;20024;-70
2023/04/13 03:30:56;;;;;;;2.67;0.88;;;7.40;99.90;;;;;;5071193;28;20017;-69
2023/04/13 03:33:22;;;;;;;1.38;0.88;;;7.40;99.90;;;;;;5071130;28;20029;-70
2023/04/13 03:35:48;;;;;;;1.88;0.60;;;7.40;99.90;;;;;;5072459;28;20074;-69
2023/04/13 03:38:22;;;;;;;3.17;1.65;;;7.30;99.90;;;;;;5070805;28;20040;-70
2023/04/13 03:40:48;;;;;;;1.30;1.05;;;7.30;99.90;;;;;;5070858;28;20031;-69
2023/04/13 03:43:15;;;;;;;0.15;0.13;;;7.30;99.90;;;;;;5072224;28;20037;-69
2023/04/13 03:45:44;;;;;;;1.35;0.40;;;7.20;99.90;;;;;;5054901;28;20032;-69
2023/04/13 03:48:13;;;;;;;9.27;1.27;;;7.30;99.90;;;;;;5070615;28;20020;-69
2023/04/13 03:50:39;;;;;;;0.28;0.25;;;7.10;99.90;;;;;;5071156;28;20029;-69
2023/04/13 03:53:07;;;;;;;0.10;0.10;;;7.10;99.90;;;;;;5054489;28;20376;-69
2023/04/13 03:55:33;;;;;;;5.88;1.65;;;7.00;99.90;;;;;;5070851;28;20062;-70
2023/04/13 03:58:04;;;;;;;2.53;1.33;;;7.00;99.90;;;;;;5070958;28;20025;-72
2023/04/13 04:00:30;;;;;;;0.68;0.47;;;7.10;99.90;;;;;;5070882;28;20372;-73
2023/04/13 04:03:10;;;;;;;0.32;0.32;;;7.10;99.90;;;;;;5070512;28;20489;-73
2023/04/13 04:05:51;;;;;;;4.40;0.67;;;7.10;99.90;;;;;;5070920;28;20484;-72
2023/04/13 04:08:17;;;;;;;0.88;0.47;;;7.00;99.90;;;;;;5070448;28;20023;-72
2023/04/13 04:10:43;;;;;;;0.30;0.30;;;7.00;99.90;;;;;;5070811;28;20447;-72
2023/04/13 04:13:10;;;;;;;1.80;0.90;;;7.00;99.90;;;;;;5071081;28;20393;-73
2023/04/13 04:15:41;;;;;;;3.10;0.60;;;6.90;99.90;;;;;;5070416;28;20036;-73
2023/04/13 04:18:09;;;;;;;4.30;0.50;;;6.90;99.90;;;;;;5070900;28;20024;-72
2023/04/13 04:20:37;;;;;;;3.97;0.50;;;7.00;99.90;;;;;;5070605;28;20051;-72
2023/04/13 04:23:04;;;;;;;0.60;0.47;;;7.00;99.90;;;;;;5070616;28;20051;-73
2023/04/13 04:25:39;;;;;;;0.30;0.30;;;7.10;99.90;;;;;;5070302;28;20052;-72
2023/04/13 04:28:05;;;;;;;12.18;1.70;;;7.00;99.90;;;;;;5071048;28;20453;-72
2023/04/13 04:30:32;;;;;;;1.95;0.70;;;7.00;99.90;;;;;;5072417;28;20354;-73
2023/04/13 04:33:00;;;;;;;2.50;0.50;;;7.00;99.90;;;;;;5074340;28;20021;-72
2023/04/13 04:35:34;;;;;;;0.82;0.30;;;7.10;99.90;;;;;;5073909;28;20063;-72
2023/04/13 04:38:05;;;;;;;0.20;0.13;;;7.10;99.90;;;;;;5073876;28;20064;-73
2023/04/13 04:40:36;;;;;;;0.10;0.10;;;7.20;99.90;;;;;;5057748;28;20028;-73
2023/04/13 04:43:05;;;;;;;0.77;0.77;;;7.30;99.90;;;;;;5074146;28;20044;-72
2023/04/13 04:45:44;;;;;;;8.30;1.23;;;7.30;99.90;;;;;;5073814;28;20043;-72
2023/04/13 04:48:12;;;;;;;1.30;0.85;;;7.30;99.90;;;;;;5074102;28;20177;-72
2023/04/13 04:50:43;;;;;;;0.15;0.15;;;7.20;99.90;;;;;;5074012;28;20089;-73
2023/04/13 04:53:11;;;;;;;0.25;0.25;;;7.30;99.90;;;;;;5073673;28;20029;-72
2023/04/13 04:55:38;;;;;;;1.90;0.70;;;7.30;99.90;;;;;;5073560;28;20389;-73
2023/04/13 04:58:04;;;;;;;0.10;0.10;;;7.20;99.90;;;;;;5073047;28;20028;-72
2023/04/13 05:00:31;;;;;;;2.97;0.80;;;7.30;99.90;;;;;;5073637;28;20028;-72
2023/04/13 05:03:19;;;;;;;4.93;1.27;;;7.20;99.90;;;;;;5074525;28;20060;-72
2023/04/13 05:05:50;;;;;;;4.88;1.35;;;7.10;99.90;;;;;;5073399;28;20028;-73
2023/04/13 05:08:24;;;;;;;4.43;0.98;;;7.10;99.90;;;;;;5073364;28;20020;-73
2023/04/13 05:10:50;;;;;;;0.38;0.35;;;7.20;99.90;;;;;;5073659;28;20095;-73
2023/04/13 05:13:17;;;;;;;0.85;0.38;;;7.10;99.90;;;;;;5073461;28;20477;-72
2023/04/13 05:15:52;;;;;;;2.90;1.00;;;7.20;99.90;;;;;;5073808;28;20024;-70
2023/04/13 05:18:18;;;;;;;0.50;0.50;;;7.20;99.90;;;;;;5073723;28;20029;-70
2023/04/13 05:20:44;;;;;;;1.48;0.57;;;7.20;99.90;;;;;;5072851;28;20051;-70
2023/04/13 05:23:11;;;;;;;1.35;0.70;;;7.30;99.90;;;;;;5074457;28;20039;-69
2023/04/13 05:25:43;;;;;;;3.78;0.70;;;7.40;99.90;;;;;;5073047;28;20020;-69
2023/04/13 05:28:16;;;;;;;1.65;0.50;;;7.40;99.90;;;;;;5073342;28;20065;-69
2023/04/13 05:30:43;;;;;;;1.70;1.13;;;7.40;99.90;;;;;;5073048;28;20387;-70
2023/04/13 05:33:10;;;;;;;3.53;0.77;;;7.40;99.90;;;;;;5073346;28;20021;-70
2023/04/13 05:35:38;;;;;;;7.72;0.70;;;7.40;99.90;;;;;;5072595;28;20032;-70
2023/04/13 05:38:06;;;;;;;1.48;0.90;;;7.60;99.90;;;;;;5072888;28;20393;-69
2023/04/13 05:40:34;;;;;;;2.25;1.23;;;7.50;99.90;;;;;;5070681;28;20039;-70
2023/04/13 05:43:00;;;;;;;5.25;1.30;;;7.50;99.90;;;;;;5069813;28;20021;-69
2023/04/13 05:45:29;;;;;;;1.05;0.77;;;7.60;99.90;;;;;;5073030;28;20058;-69
2023/04/13 05:48:01;;;;;;;2.92;0.55;;;7.60;99.90;;;;;;5087067;28;20392;-69
2023/04/13 05:50:27;;;;;;;4.45;1.65;;;7.60;99.90;;;;;;5086482;28;20085;-69
2023/04/13 05:52:56;;;;;;;0.55;0.55;;;7.70;99.90;;;;;;5079226;28;20119;-70
2023/04/13 05:55:22;;;;;;;0.40;0.40;;;7.70;99.90;;;;;;5074512;28;20043;-70
2023/04/13 05:57:55;;;;;;;16.02;3.67;;;7.70;99.90;;;;;;5073794;28;20028;-70
2023/04/13 06:00:21;;;;;;;2.80;1.08;;;7.80;99.90;;;;;;5088348;28;20783;-69
2023/04/13 06:02:59;;;;;;;5.70;1.30;;;7.80;99.90;;;;;;5080589;28;20024;-69
2023/04/13 06:05:26;;;;;;;4.32;1.08;;;7.80;99.90;;;;;;5075525;28;20028;-70
2023/04/13 06:07:52;;;;;;;3.47;1.33;;;7.90;99.90;;;;;;5072223;28;20066;-69
2023/04/13 06:10:18;;;;;;;6.88;1.15;;;7.90;99.90;;;;;;5084276;28;20032;-69
2023/04/13 06:12:47;;;;;;;6.22;2.40;;;7.90;99.90;;;;;;5081509;28;20032;-71
2023/04/13 06:15:13;;;;;;;2.67;1.02;;;8.00;99.90;;;;;;5085608;28;20054;-70
2023/04/13 06:17:39;;;;;;;3.95;1.25;;;8.00;99.90;;;;;;5075615;28;20400;-70
2023/04/13 06:20:06;;;;;;;10.43;2.03;;;8.00;99.90;;;;;;5070854;28;20020;-70
2023/04/13 06:22:33;;;;;;;7.63;1.33;;;8.00;99.90;;;;;;5069793;28;20086;-70
2023/04/13 06:24:59;;;;;;;3.67;0.60;;;8.10;99.90;;;;;;5075276;28;20081;-70
2023/04/13 06:27:27;;;;;;;3.45;0.88;;;8.10;99.90;;;;;;5078718;28;20024;-69
2023/04/13 06:29:55;;;;;;;1.10;0.98;;;8.10;99.90;;;;;;5079285;28;20461;-69
2023/04/13 06:32:21;;;;;;;9.45;1.35;;;8.10;99.90;;;;;;5066208;28;20024;-70
2023/04/13 06:34:47;;;;;;;1.35;0.55;;;8.20;99.90;;;;;;5074031;28;20051;-69
2023/04/13 06:37:14;;;;;;;3.83;0.85;;;8.30;99.90;;;;;;5071418;28;20024;-70
2023/04/13 06:39:47;;;;;;;4.35;1.35;;;8.30;99.90;;;;;;5079996;28;20028;-69
2023/04/13 06:42:14;;;;;;;27.02;5.82;;;8.40;99.90;;;;;;5075531;28;20020;-69
2023/04/13 06:44:51;;;;;;;7.13;1.75;;;8.40;99.90;;;;;;5071422;28;20398;-69
2023/04/13 06:47:17;;;;;;;6.53;1.48;;;8.50;99.90;;;;;;5071967;28;20074;-69
2023/04/13 06:49:44;;;;;;;8.90;1.95;;;8.60;99.90;;;;;;5081258;28;20540;-70
2023/04/13 06:52:10;;;;;;;31.98;2.42;;;8.60;99.90;;;;;;5081692;28;20039;-69
2023/04/13 06:54:36;;;;;;;10.15;1.17;;;8.50;99.90;;;;;;5073811;28;20067;-70
2023/04/13 06:57:12;;;;;;;8.18;1.85;;;8.60;99.90;;;;;;5071260;28;20024;-70
2023/04/13 06:59:37;;;;;;;10.23;1.45;;;8.60;99.90;;;;;;5070730;28;20030;-70
2023/04/13 07:02:03;;;;;;;5.03;2.58;;;8.70;99.90;;;;;;5082800;28;20095;-71
2023/04/13 07:04:30;;;;;;;3.47;1.55;;;8.70;99.90;;;;;;5078970;28;20067;-71
2023/04/13 07:06:56;;;;;;;19.92;4.07;;;8.80;99.90;;;;;;5070014;28;20404;-73
2023/04/13 07:09:22;;;;;;;4.90;1.13;;;8.80;99.90;;;;;;5067599;28;20044;-71
2023/04/13 07:11:48;;;;;;;5.15;1.80;;;8.70;99.90;;;;;;5070117;28;20477;-71
2023/04/13 07:14:15;;;;;;;0.40;0.40;;;8.70;99.90;;;;;;5064767;28;20025;-70
2023/04/13 07:16:41;;;;;;;2.47;1.05;;;8.90;99.90;;;;;;5070537;28;20405;-72
2023/04/13 07:19:07;;;;;;;4.80;1.85;;;8.80;99.90;;;;;;5070405;28;20020;-72
2023/04/13 07:21:33;;;;;;;1.98;1.27;;;8.90;99.90;;;;;;5071238;28;20504;-73
2023/04/13 07:24:01;;;;;;;9.73;2.70;;;8.90;99.90;;;;;;5070606;28;20035;-73
2023/04/13 07:26:27;;;;;;;15.55;3.50;;;9.00;99.90;;;;;;5070528;28;20099;-73
2023/04/13 07:28:54;;;;;;;27.17;3.45;;;8.90;99.90;;;;;;5067774;28;20478;-73
2023/04/13 07:31:25;;;;;;;13.10;1.70;;;8.90;99.90;;;;;;5070818;28;20052;-73
2023/04/13 07:33:52;;;;;;;14.25;2.85;;;8.90;99.90;;;;;;5070693;28;20028;-73
2023/04/13 07:36:23;;;;;;;1.40;0.68;;;9.00;99.90;;;;;;5071151;28;20078;-73
2023/04/13 07:38:53;;;;;;;3.80;1.02;;;9.10;99.90;;;;;;5070798;28;20029;-72
2023/04/13 07:41:21;;;;;;;22.15;2.30;;;9.30;99.90;;;;;;5058396;28;20054;-72
2023/04/13 07:43:49;;;;;;;7.28;2.65;;;9.40;99.90;;;;;;5070852;28;20032;-73
2023/04/13 07:46:15;;;;;;;3.28;1.70;;;9.40;99.90;;;;;;5070700;28;20077;-73
2023/04/13 07:48:42;;;;;;;3.30;1.25;;;9.40;99.90;;;;;;5071027;28;20028;-73
2023/04/13 07:51:18;;;;;;;9.93;1.77;;;9.30;99.90;;;;;;5070944;28;20021;-72
2023/04/13 07:53:46;;;;;;;5.97;1.50;;;9.30;99.90;;;;;;5070974;28;20090;-74
2023/04/13 07:56:13;;;;;;;0.98;0.55;;;9.40;99.90;;;;;;5070984;28;20012;-73
2023/04/13 07:58:38;;;;;;;5.57;1.58;;;9.40;99.90;;;;;;5070873;28;20116;-73
2023/04/13 08:01:05;;;;;;;4.38;1.20;;;9.30;99.90;;;;;;5070639;28;20035;-73
2023/04/13 08:03:32;;;;;;;5.25;1.38;;;9.50;99.90;;;;;;5070732;28;20480;-73
2023/04/13 08:05:59;;;;;;;2.70;1.38;;;9.50;99.90;;;;;;5073991;28;20028;-73
2023/04/13 08:08:25;;;;;;;10.10;2.08;;;9.40;99.90;;;;;;5074634;28;20066;-72
2023/04/13 08:10:54;;;;;;;5.32;1.35;;;9.40;99.90;;;;;;5074522;28;20052;-72
2023/04/13 08:13:22;;;;;;;13.55;2.53;;;9.40;99.90;;;;;;5074748;28;20028;-72
2023/04/13 08:15:50;;;;;;;15.25;1.77;;;9.30;99.90;;;;;;5074353;28;20028;-72
2023/04/13 08:18:16;;;;;;;9.20;1.85;;;9.40;99.90;;;;;;5074681;28;20485;-72
2023/04/13 08:20:42;;;;;;;4.72;1.75;;;9.40;99.90;;;;;;5074542;28;20033;-72
2023/04/13 08:23:08;;;;;;;4.85;0.45;;;9.30;99.90;;;;;;5074452;28;20025;-72
2023/04/13 08:25:40;;;;;;;1.95;0.90;;;9.30;99.90;;;;;;5075609;28;20366;-72
2023/04/13 08:28:07;;;;;;;9.68;1.30;;;9.40;99.90;;;;;;5075543;28;20453;-71
2023/04/13 08:30:33;;;;;;;11.77;1.33;;;9.40;99.90;;;;;;5074937;28;20025;-72
2023/04/13 08:33:02;;;;;;;1.10;0.75;;;9.40;99.90;;;;;;5074378;28;20021;-72
2023/04/13 08:35:28;;;;;;;0.65;0.50;;;9.50;99.90;;;;;;5073717;28;20040;-72
2023/04/13 08:37:57;;;;;;;12.38;2.45;;;9.60;99.90;;;;;;5074056;28;20469;-72
2023/04/13 08:40:23;;;;;;;6.10;2.30;;;9.70;99.90;;;;;;5075520;28;20036;-72
2023/04/13 08:42:53;;;;;;;10.32;1.33;;;9.90;99.90;;;;;;5057695;28;20116;-72
2023/04/13 08:45:20;;;;;;;9.40;4.15;;;10.10;99.90;;;;;;5073895;28;20050;-72
2023/04/13 08:47:48;;;;;;;8.05;3.25;;;10.10;99.90;;;;;;5073879;28;20070;-72
2023/04/13 08:50:16;;;;;;;4.07;2.25;;;10.20;99.90;;;;;;5074030;28;20031;-72
2023/04/13 08:52:46;;;;;;;8.18;3.35;;;10.40;99.90;;;;;;5073852;28;20025;-72
2023/04/13 08:55:14;;;;;;;14.50;2.05;;;10.40;99.90;;;;;;5073817;28;20028;-71
2023/04/13 08:57:41;;;;;;;1.75;0.63;;;10.60;99.90;;;;;;5073653;28;20127;-72
2023/04/13 09:00:15;;;;;;;24.42;3.72;;;10.50;99.90;;;;;;5073833;28;20028;-72
2023/04/13 09:02:46;;;;;;;6.55;2.78;;;10.40;99.90;;;;;;5073803;28;20021;-72
2023/04/13 09:05:19;;;;;;;13.30;2.13;;;10.30;99.90;;;;;;5073591;28;20028;-72
2023/04/13 09:07:52;;;;;;;7.25;2.42;;;10.30;99.90;;;;;;5073393;28;20021;-72
2023/04/13 09:10:24;;;;;;;9.15;3.33;;;10.30;99.90;;;;;;5073423;28;20060;-72
2023/04/13 09:12:50;;;;;;;;;;;10.20;99.90;;;;;;5073917;28;20545;-72
2023/04/13 09:15:16;;;;;;;23.15;3.55;;;10.30;99.90;;;;;;5074619;28;20285;-72
2023/04/13 09:18:08;;;;;;;15.05;3.67;;;10.20;99.90;;;;;;5073339;28;20484;-72
2023/04/13 09:20:38;;;;;;;10.32;2.25;;;10.20;99.90;;;;;;5073196;28;20052;-72
2023/04/13 09:23:14;;;;;;;16.67;2.03;;;10.20;99.90;;;;;;5073421;28;20064;-72
2023/04/13 09:25:41;;;;;;;16.95;3.17;;;10.20;99.90;;;;;;5074582;28;20470;-72
2023/04/13 09:28:18;;;;;;;12.55;4.38;;;10.10;99.90;;;;;;5074330;28;20480;-72
2023/04/13 09:30:45;;;;;;;10.15;2.60;;;10.00;99.90;;;;;;5074426;28;20545;-72
2023/04/13 09:33:12;;;;;;;7.63;2.63;;;9.90;99.90;;;;;;5073594;28;20090;-72
2023/04/13 09:35:38;;;;;;;8.63;2.08;;;10.00;99.90;;;;;;5074314;28;20028;-72
2023/04/13 09:38:05;;;;;;;6.25;2.03;;;10.20;99.90;;;;;;5074258;28;20037;-72
2023/04/13 09:40:31;;;;;;;14.80;3.97;;;10.30;99.90;;;;;;5074166;28;20025;-72
2023/04/13 09:43:03;;;;;;;10.25;3.50;;;10.40;99.90;;;;;;5074002;28;20024;-72
2023/04/13 09:45:36;;;;;;;14.80;3.05;;;10.60;99.90;;;;;;5074185;28;20089;-72
2023/04/13 09:48:04;;;;;;;13.90;3.72;;;10.70;99.90;;;;;;5060537;28;20139;-72
2023/04/13 09:50:35;;;;;;;28.08;2.15;;;10.80;99.90;;;;;;5074133;28;20029;-72
2023/04/13 09:53:05;;;;;;;8.10;1.88;;;11.20;99.90;;;;;;5073856;28;20039;-72
2023/04/13 09:55:33;;;;;;;6.03;1.92;;;11.30;99.90;;;;;;5073975;28;20465;-72
2023/04/13 09:58:15;;;;;;;7.45;2.72;;;11.40;99.90;;;;;;5073792;28;20380;-72
2023/04/13 10:00:45;;;;;;;7.47;3.13;;;11.50;99.90;;;;;;5072967;28;20051;-72
2023/04/13 10:03:15;;;;;;;26.98;3.17;;;11.50;99.90;;;;;;5073548;28;20380;-72
2023/04/13 10:05:42;;;;;;;7.93;1.38;;;11.40;99.90;;;;;;5072752;28;20041;-72
2023/04/13 10:08:08;;;;;;;2.45;0.93;;;11.60;99.90;;;;;;5073764;28;20070;-72
2023/04/13 10:10:38;;;;;;;46.83;3.35;;;11.80;99.90;;;;;;5073215;28;20060;-72
2023/04/13 10:13:22;;;;;;;8.80;2.85;;;12.30;99.90;;;;;;5073619;28;20029;-73
2023/04/13 10:15:51;;;;;;;11.82;2.92;;;12.00;99.90;;;;;;5072543;28;20063;-72
2023/04/13 10:18:56;;;;;;;4.03;1.27;;;11.60;99.90;;;;;;5073655;28;20116;-72
2023/04/13 10:21:24;;;;;;;3.67;1.35;;;11.40;99.90;;;;;;5064593;28;20025;-72
2023/04/13 10:23:50;;;;;;;3.00;1.70;;;11.60;99.90;;;;;;5072125;28;20028;-72
2023/04/13 10:26:16;;;;;;;14.23;3.45;;;11.40;99.90;;;;;;5073120;28;20480;-72
2023/04/13 10:28:43;;;;;;;18.25;3.50;;;11.10;99.90;;;;;;5072560;28;20021;-72
2023/04/13 10:31:09;;;;;;;5.03;0.75;;;11.00;99.90;;;;;;5073391;28;20036;-72
2023/04/13 10:33:49;;;;;;;16.25;3.30;;;11.10;99.90;;;;;;5055236;28;20051;-73
2023/04/13 10:36:15;;;;;;;3.30;1.58;;;10.90;99.90;;;;;;5073211;28;20020;-72
2023/04/13 10:38:45;;;;;;;2.50;0.52;;;11.00;99.90;;;;;;5072770;28;20119;-73
2023/04/13 10:41:23;;;;;;;6.82;4.13;;;11.30;99.90;;;;;;5072984;28;20103;-72
2023/04/13 10:44:03;;;;;;;11.82;2.38;;;11.30;99.90;;;;;;5072869;28;20082;-73
2023/04/13 10:46:29;;;;;;;7.32;2.15;;;11.60;99.90;;;;;;5073113;28;20028;-73
2023/04/13 10:48:58;;;;;;;18.83;2.70;;;11.80;99.90;;;;;;5072800;28;20028;-73
2023/04/13 10:51:41;;;;;;;2.60;1.38;;;12.00;99.90;;;;;;5059111;28;20020;-72
2023/04/13 10:54:08;;;;;;;28.40;3.63;;;12.60;99.90;;;;;;5072555;28;20033;-72
2023/04/13 10:56:34;;;;;;;3.92;2.15;;;12.80;99.90;;;;;;5073388;28;20036;-72
2023/04/13 10:59:00;;;;;;;3.63;1.20;;;13.00;99.90;;;;;;5072644;28;20028;-72
2023/04/13 11:01:28;;;;;;;6.32;1.25;;;13.20;99.90;;;;;;5072807;28;20039;-72
2023/04/13 11:03:55;;;;;;;11.57;2.40;;;13.10;99.30;;;;;;5072450;28;20120;-72
2023/04/13 11:06:21;;;;;;;7.72;1.80;;;13.30;99.90;;;;;;5071493;28;20443;-73
2023/04/13 11:08:47;;;;;;;6.75;1.30;;;13.20;98.80;;;;;;5072317;28;20063;-73
2023/04/13 11:11:24;;;;;;;4.28;1.50;;;13.10;99.30;;;;;;5072640;28;20066;-73
2023/04/13 11:13:49;;;;;;;17.83;3.47;;;12.90;99.20;;;;;;5072494;28;20025;-72
2023/04/13 11:16:15;;;;;;;3.58;1.63;;;12.70;98.90;;;;;;5072810;28;20036;-72
2023/04/13 11:18:41;;;;;;;6.78;1.30;;;13.10;98.40;;;;;;5072868;28;20028;-72
2023/04/13 11:21:15;;;;;;;2.72;1.17;;;13.30;98.80;;;;;;5071312;28;20032;-72
2023/04/13 11:23:41;;;;;;;3.65;1.52;;;13.30;98.50;;;;;;5071739;28;20436;-72
2023/04/13 11:26:07;;;;;;;2.58;1.17;;;13.00;98.60;;;;;;5071441;28;20027;-72
2023/04/13 11:28:52;;;;;;;4.20;1.65;;;13.20;98.40;;;;;;5072715;28;20483;-72
2023/04/13 11:31:17;;;;;;;6.97;1.40;;;13.70;98.20;;;;;;5061215;28;20025;-72
2023/04/13 11:33:48;;;;;;;10.40;1.83;;;13.40;98.30;;;;;;5072322;28;20141;-72
2023/04/13 11:36:15;;;;;;;6.30;1.40;;;13.50;98.30;;;;;;5072353;28;20024;-72
2023/04/13 11:38:42;;;;;;;4.03;1.35;;;12.90;97.30;;;;;;5070875;28;20488;-72
2023/04/13 11:41:08;;;;;;;1.52;1.30;;;13.00;97.40;;;;;;5075773;28;20070;-72
2023/04/13 11:43:33;;;;;;;0.90;0.82;;;13.40;96.70;;;;;;5076732;28;20036;-72
2023/04/13 11:46:00;;;;;;;11.15;1.77;;;13.80;97.10;;;;;;5075259;28;20052;-72
2023/04/13 11:48:26;;;;;;;2.25;1.13;;;13.70;96.60;;;;;;5074986;28;20060;-72
2023/04/13 11:50:53;;;;;;;2.60;0.85;;;13.10;97.10;;;;;;5076375;28;20043;-72
2023/04/13 11:53:19;;;;;;;6.75;2.10;;;13.50;98.00;;;;;;5076105;28;20046;-72
2023/04/13 11:55:45;;;;;;;4.10;0.88;;;13.80;97.50;;;;;;5076295;28;20473;-71
2023/04/13 11:58:15;;;;;;;7.63;1.73;;;13.90;97.50;;;;;;5076267;28;20028;-73
2023/04/13 12:00:41;;;;;;;8.10;2.38;;;13.90;96.80;;;;;;5076204;28;20106;-72
2023/04/13 12:03:18;;;;;;;4.25;0.98;;;13.20;96.00;;;;;;5076116;28;20096;-72
2023/04/13 12:05:46;;;;;;;1.02;0.63;;;13.50;96.10;;;;;;5076153;28;20036;-72
2023/04/13 12:08:22;;;;;;;14.88;0.88;;;13.90;96.00;;;;;;5075616;28;20099;-74
2023/04/13 12:10:56;;;;;;;1.02;0.82;;;14.10;95.70;;;;;;5075825;28;20037;-74
2023/04/13 12:13:22;;;;;;;3.13;0.95;;;13.40;96.40;;;;;;5073759;28;20033;-73
2023/04/13 12:15:47;;;;;;;2.17;0.45;;;14.00;95.00;;;;;;5070213;28;20028;-72
2023/04/13 12:18:13;;;;;;;6.13;0.65;;;14.40;94.70;;;;;;5084052;28;20481;-72
2023/04/13 12:20:42;;;;;;;0.35;0.30;;;14.70;94.10;;;;;;5079388;28;20024;-72
2023/04/13 12:23:23;;;;;;;3.28;0.98;;;14.70;93.50;;;;;;5078843;28;20479;-72
2023/04/13 12:26:04;;;;;;;0.90;0.17;;;14.80;93.00;;;;;;5074868;28;20031;-72
2023/04/13 12:28:35;;;;;;;1.25;0.45;;;15.90;92.00;;;;;;5084835;28;20578;-72
2023/04/13 12:31:08;;;;;;;0.15;0.15;;;15.50;92.80;;;;;;5082684;28;20081;-72
2023/04/13 12:33:35;;;;;;;0.63;0.25;;;15.50;92.10;;;;;;5077554;28;20028;-72
2023/04/13 12:36:01;;;;;;;1.75;1.10;;;15.00;92.50;;;;;;5074698;28;20027;-72
2023/04/13 12:38:27;;;;;;;1.77;1.00;;;14.50;93.10;;;;;;5085770;28;20127;-72
2023/04/13 12:40:56;;;;;;;1.45;0.38;;;15.00;92.70;;;;;;5083739;28;20159;-72
2023/04/13 12:43:23;;;;;;;4.32;1.05;;;15.70;92.40;;;;;;5083877;28;20033;-72
2023/04/13 12:45:49;;;;;;;4.60;0.63;;;16.40;90.70;;;;;;5073115;28;20563;-72
2023/04/13 12:48:15;;;;;;;0.43;0.25;;;16.90;90.20;;;;;;5074884;28;20096;-73
2023/04/13 12:50:41;;;;;;;3.35;0.77;;;16.50;88.40;;;;;;5080875;28;20392;-72
2023/04/13 12:53:07;;;;;;;6.28;0.77;;;16.30;90.20;;;;;;5065868;28;20032;-72
2023/04/13 12:55:33;;;;;;;1.60;0.50;;;16.00;90.10;;;;;;5070856;28;20028;-73
2023/04/13 12:57:59;;;;;;;3.22;1.00;;;16.50;89.60;;;;;;5078738;28;20103;-72
2023/04/13 13:00:25;;;;;;;1.40;0.32;;;16.40;89.80;;;;;;5074509;28;20191;-73
2023/04/13 13:02:51;;;;;;;1.15;0.95;;;17.00;88.20;;;;;;5080207;28;20029;-72